Time;durP1;ratioP1;P1;durP2;ratioP2;P2;SDS_P1;SDS_P2;PMS_P1;PMS_P2;Temp;Humidity;BMP_temperature;BMP_pressure;BME280_temperature;BME280_humidity;BME280_pressure;Samples;Min_cycle;Max_cycle;Signal;HPM_P1;HPM_P2
2022/11/09 00:00:35;;;;;;;103.38;59.75;;;;;;;;;;6198200;28;20094;-79
2022/11/09 00:03:35;;;;;;;113.10;51.92;;;;;;;;;;6195631;28;20273;-78
2022/11/09 00:06:35;;;;;;;100.93;50.95;;;;;;;;;;6180236;28;20045;-78
2022/11/09 00:09:35;;;;;;;108.77;51.77;;;;;;;;;;6197704;28;20023;-77
2022/11/09 00:12:36;;;;;;;98.43;48.73;;;;;;;;;;6177505;28;20026;-78
2022/11/09 00:15:36;;;;;;;101.47;50.25;;;;;;;;;;6179146;28;20033;-78
2022/11/09 00:18:37;;;;;;;99.37;51.87;;;;;;;;;;6196154;28;20478;-78
2022/11/09 00:21:37;;;;;;;100.07;48.63;;;;;;;;;;6180046;28;20014;-78
2022/11/09 00:24:37;;;;;;;109.18;50.63;;;;;;;;;;6201293;28;20101;-78
2022/11/09 00:27:38;;;;;;;89.93;45.33;;;;;;;;;;6183253;28;20022;-77
2022/11/09 00:30:38;;;;;;;87.63;46.97;;;;;;;;;;6184094;28;20087;-77
2022/11/09 00:33:38;;;;;;;117.13;60.33;;;;;;;;;;6201211;28;20538;-78
2022/11/09 00:36:39;;;;;;;110.05;60.42;;;;;;;;;;6199155;28;20041;-78
2022/11/09 00:39:39;;;;;;;115.03;60.60;;;;;;;;;;6181804;28;20022;-78
2022/11/09 00:42:39;;;;;;;111.63;55.40;;;;;;;;;;6200523;28;20100;-78
2022/11/09 00:45:40;;;;;;;109.90;52.95;;;;;;;;;;6200973;28;20385;-78
2022/11/09 00:48:40;;;;;;;102.15;54.05;;;;;;;;;;6201081;28;20377;-78
2022/11/09 00:51:40;;;;;;;101.03;51.63;;;;;;;;;;6200725;28;20544;-78
2022/11/09 00:54:40;;;;;;;109.85;52.30;;;;;;;;;;6183281;28;20034;-78
2022/11/09 00:57:40;;;;;;;93.63;47.33;;;;;;;;;;6199587;28;20773;-78
2022/11/09 01:00:40;;;;;;;82.32;39.40;;;;;;;;;;6201092;28;20026;-77
2022/11/09 01:03:41;;;;;;;107.80;54.55;;;;;;;;;;6199211;28;20296;-77
2022/11/09 01:06:41;;;;;;;104.70;55.15;;;;;;;;;;6201373;28;20664;-78
2022/11/09 01:09:41;;;;;;;107.07;55.00;;;;;;;;;;6199827;28;20030;-78
2022/11/09 01:12:42;;;;;;;95.90;47.30;;;;;;;;;;6182858;28;20105;-78
2022/11/09 01:15:43;;;;;;;97.60;48.90;;;;;;;;;;6199452;28;20026;-78
2022/11/09 01:18:43;;;;;;;103.95;50.40;;;;;;;;;;6199428;28;20460;-77
2022/11/09 01:21:43;;;;;;;110.50;54.10;;;;;;;;;;6182958;28;20023;-78
2022/11/09 01:24:44;;;;;;;110.63;52.83;;;;;;;;;;6200294;28;20021;-78
2022/11/09 01:27:44;;;;;;;104.53;52.20;;;;;;;;;;6181699;28;20031;-78
2022/11/09 01:30:44;;;;;;;86.40;38.53;;;;;;;;;;6200284;28;20027;-77
2022/11/09 01:33:45;;;;;;;113.20;55.72;;;;;;;;;;6198395;28;20023;-77
2022/11/09 01:36:45;;;;;;;112.97;51.25;;;;;;;;;;6181609;28;20094;-77
2022/11/09 01:39:45;;;;;;;111.90;56.70;;;;;;;;;;6199312;28;20022;-77
2022/11/09 01:42:45;;;;;;;111.65;56.05;;;;;;;;;;6182065;28;20450;-77
2022/11/09 01:45:50;;;;;;;113.03;56.80;;;;;;;;;;6181933;28;20053;-78
2022/11/09 01:48:53;;;;;;;100.80;47.90;;;;;;;;;;6199126;28;20390;-77
2022/11/09 01:52:05;;;;;;;103.22;51.65;;;;;;;;;;6195865;28;20018;-77
2022/11/09 01:55:11;;;;;;;102.13;48.10;;;;;;;;;;6181446;28;20449;-77
2022/11/09 01:58:13;;;;;;;115.00;53.78;;;;;;;;;;6197679;28;20048;-77
2022/11/09 02:01:14;;;;;;;108.85;48.20;;;;;;;;;;6181170;28;20018;-77
2022/11/09 02:04:14;;;;;;;111.65;56.78;;;;;;;;;;6197552;28;20399;-77
2022/11/09 02:07:15;;;;;;;104.07;51.28;;;;;;;;;;6178804;28;20038;-77
2022/11/09 02:10:22;;;;;;;113.87;52.63;;;;;;;;;;6181536;28;20498;-77
2022/11/09 02:13:24;;;;;;;115.25;54.67;;;;;;;;;;6197640;28;20486;-77
2022/11/09 02:16:25;;;;;;;128.32;58.65;;;;;;;;;;6198188;28;20072;-77
2022/11/09 02:19:25;;;;;;;118.10;58.17;;;;;;;;;;6196847;28;20018;-77
2022/11/09 02:22:26;;;;;;;122.15;51.95;;;;;;;;;;6198723;28;20018;-77
2022/11/09 02:25:26;;;;;;;137.03;54.30;;;;;;;;;;6198842;28;20030;-77
2022/11/09 02:28:26;;;;;;;111.22;51.97;;;;;;;;;;6180686;28;20034;-77
2022/11/09 02:31:30;;;;;;;152.00;61.53;;;;;;;;;;6198857;28;20304;-77
2022/11/09 02:34:30;;;;;;;203.30;59.30;;;;;;;;;;6179891;28;20105;-78
2022/11/09 02:37:37;;;;;;;186.40;47.03;;;;;;;;;;6180164;28;20026;-78
2022/11/09 02:40:39;;;;;;;131.15;43.65;;;;;;;;;;6180232;28;20121;-77
2022/11/09 02:43:40;;;;;;;186.45;47.38;;;;;;;;;;6181270;28;20033;-77
2022/11/09 02:46:40;;;;;;;196.02;58.63;;;;;;;;;;6180514;28;20375;-77
2022/11/09 02:49:40;;;;;;;158.68;56.50;;;;;;;;;;6196487;28;20033;-77
2022/11/09 02:52:40;;;;;;;145.68;61.08;;;;;;;;;;6197022;28;20072;-77
2022/11/09 02:55:41;;;;;;;178.40;65.60;;;;;;;;;;6180013;28;20030;-77
2022/11/09 02:58:41;;;;;;;142.45;48.15;;;;;;;;;;6181233;28;20024;-78
2022/11/09 03:01:41;;;;;;;188.30;59.13;;;;;;;;;;6197246;28;20022;-78
2022/11/09 03:04:41;;;;;;;159.20;53.83;;;;;;;;;;6197438;28;20043;-78
2022/11/09 03:07:42;;;;;;;181.76;62.56;;;;;;;;;;6197859;28;20752;-78
2022/11/09 03:10:42;;;;;;;129.70;55.55;;;;;;;;;;6180493;28;20031;-78
2022/11/09 03:13:42;;;;;;;159.03;71.93;;;;;;;;;;6179262;28;20502;-78
2022/11/09 03:16:42;;;;;;;227.75;63.55;;;;;;;;;;6179966;28;20309;-79
2022/11/09 03:19:43;;;;;;;244.65;68.28;;;;;;;;;;6195803;28;20025;-79
2022/11/09 03:22:43;;;;;;;230.33;66.00;;;;;;;;;;6197748;28;20014;-79
2022/11/09 03:25:43;;;;;;;181.45;55.60;;;;;;;;;;6179814;28;20029;-79
2022/11/09 03:28:44;;;;;;;146.57;51.43;;;;;;;;;;6182241;28;20018;-79
2022/11/09 03:31:44;;;;;;;220.00;62.77;;;;;;;;;;6198162;28;20074;-80
2022/11/09 03:34:44;;;;;;;163.97;53.03;;;;;;;;;;6198330;28;20014;-79
2022/11/09 03:37:44;;;;;;;157.60;53.90;;;;;;;;;;6179166;28;20049;-79
2022/11/09 03:40:45;;;;;;;146.97;54.03;;;;;;;;;;6194830;28;20026;-79
2022/11/09 03:43:45;;;;;;;206.43;59.97;;;;;;;;;;6180279;28;20053;-79
2022/11/09 03:46:45;;;;;;;120.97;44.28;;;;;;;;;;6180546;28;20027;-79
2022/11/09 03:49:46;;;;;;;129.77;51.20;;;;;;;;;;6180252;28;20019;-79
2022/11/09 03:52:46;;;;;;;161.17;61.20;;;;;;;;;;6197905;28;20023;-79
2022/11/09 03:55:46;;;;;;;222.27;62.00;;;;;;;;;;6197560;28;20034;-79
2022/11/09 03:58:46;;;;;;;137.55;57.67;;;;;;;;;;6202385;28;20018;-79
2022/11/09 04:01:47;;;;;;;120.25;54.70;;;;;;;;;;6202008;28;20101;-79
2022/11/09 04:04:47;;;;;;;117.17;52.73;;;;;;;;;;6178448;28;20550;-80
2022/11/09 04:07:53;;;;;;;106.23;46.97;;;;;;;;;;6177659;28;20018;-80
2022/11/09 04:10:53;;;;;;;114.97;51.83;;;;;;;;;;6177640;28;20113;-80
2022/11/09 04:13:53;;;;;;;131.93;56.93;;;;;;;;;;6177171;28;20019;-81
2022/11/09 04:16:53;;;;;;;121.68;54.47;;;;;;;;;;6178653;28;20019;-81
2022/11/09 04:19:53;;;;;;;99.40;51.00;;;;;;;;;;6179477;28;20059;-81
2022/11/09 04:23:01;;;;;;;108.03;52.63;;;;;;;;;;6178090;28;20015;-81
2022/11/09 04:26:01;;;;;;;111.80;50.28;;;;;;;;;;6175595;28;21066;-81
2022/11/09 04:29:01;;;;;;;109.67;49.33;;;;;;;;;;6194761;28;20027;-81
2022/11/09 04:32:02;;;;;;;92.50;41.83;;;;;;;;;;6178273;28;20050;-81
2022/11/09 04:35:02;;;;;;;105.03;48.40;;;;;;;;;;6179138;28;20021;-81
2022/11/09 04:38:07;;;;;;;102.73;48.83;;;;;;;;;;6176998;28;20067;-82
2022/11/09 04:41:07;;;;;;;95.03;45.72;;;;;;;;;;6177996;28;20026;-81
2022/11/09 04:44:07;;;;;;;115.67;50.23;;;;;;;;;;6177926;28;20665;-81
2022/11/09 04:47:08;;;;;;;114.00;50.53;;;;;;;;;;6176993;28;20057;-82
2022/11/09 04:50:08;;;;;;;111.47;47.40;;;;;;;;;;6178830;28;20027;-82
2022/11/09 04:53:09;;;;;;;107.90;49.65;;;;;;;;;;6178555;28;20018;-82
2022/11/09 04:56:10;;;;;;;100.40;48.08;;;;;;;;;;6173066;28;20038;-82
2022/11/09 04:59:10;;;;;;;99.20;49.57;;;;;;;;;;6178533;28;20169;-82
2022/11/09 05:02:10;;;;;;;107.90;48.90;;;;;;;;;;6175367;28;20038;-81
2022/11/09 05:05:10;;;;;;;116.03;55.60;;;;;;;;;;6176397;28;20039;-82
2022/11/09 05:08:11;;;;;;;102.23;52.17;;;;;;;;;;6177049;28;20022;-81
2022/11/09 05:11:11;;;;;;;116.70;53.87;;;;;;;;;;6176934;28;20485;-81
2022/11/09 05:14:11;;;;;;;101.63;46.53;;;;;;;;;;6175685;28;20475;-81
2022/11/09 05:17:11;;;;;;;108.95;49.10;;;;;;;;;;6176420;28;20277;-81
2022/11/09 05:20:12;;;;;;;101.50;49.58;;;;;;;;;;6176290;28;20341;-80
2022/11/09 05:26:32;;;;;;;101.57;48.22;;;;;;;;;;6176539;28;20027;-80
2022/11/09 05:29:32;;;;;;;102.28;47.67;;;;;;;;;;6175443;28;20342;-80
2022/11/09 05:32:34;;;;;;;95.57;47.00;;;;;;;;;;6173813;28;20011;-80
2022/11/09 05:35:34;;;;;;;102.75;48.92;;;;;;;;;;6177055;28;20026;-80
2022/11/09 05:38:35;;;;;;;105.20;47.63;;;;;;;;;;6176660;28;20130;-80
2022/11/09 05:41:35;;;;;;;103.23;49.97;;;;;;;;;;6177704;28;20038;-80
2022/11/09 05:44:35;;;;;;;91.07;43.17;;;;;;;;;;6175612;28;20444;-80
2022/11/09 05:47:36;;;;;;;94.22;44.15;;;;;;;;;;6173489;28;20329;-80
2022/11/09 05:50:36;;;;;;;97.03;39.65;;;;;;;;;;6175012;28;20302;-80
2022/11/09 05:53:37;;;;;;;88.35;44.72;;;;;;;;;;6177261;28;20018;-80
2022/11/09 05:56:37;;;;;;;89.18;47.17;;;;;;;;;;6176335;28;20069;-80
2022/11/09 05:59:37;;;;;;;94.60;44.22;;;;;;;;;;6174909;28;20022;-80
2022/11/09 06:02:38;;;;;;;99.30;46.10;;;;;;;;;;6174906;28;20450;-81
2022/11/09 06:05:39;;;;;;;89.63;43.53;;;;;;;;;;6174046;28;20073;-80
2022/11/09 06:08:39;;;;;;;98.68;43.47;;;;;;;;;;6178478;28;20017;-80
2022/11/09 06:11:39;;;;;;;85.67;43.30;;;;;;;;;;6177655;28;20022;-80
2022/11/09 06:14:39;;;;;;;92.27;44.80;;;;;;;;;;6175050;28;20065;-79
2022/11/09 06:17:40;;;;;;;92.45;43.08;;;;;;;;;;6157845;28;20290;-80
2022/11/09 06:20:40;;;;;;;69.88;37.90;;;;;;;;;;6175518;28;20019;-81
2022/11/09 06:23:40;;;;;;;75.18;40.92;;;;;;;;;;6177245;28;20094;-82
2022/11/09 06:26:40;;;;;;;78.07;41.35;;;;;;;;;;6175335;28;20030;-82
2022/11/09 06:29:41;;;;;;;74.50;40.33;;;;;;;;;;6177339;28;20019;-82
2022/11/09 06:32:41;;;;;;;71.40;37.90;;;;;;;;;;6175381;28;20110;-84
2022/11/09 06:35:41;;;;;;;68.10;40.25;;;;;;;;;;6181001;28;20015;-81
2022/11/09 06:38:41;;;;;;;71.30;39.17;;;;;;;;;;6182583;28;20057;-82
2022/11/09 06:41:42;;;;;;;59.95;35.00;;;;;;;;;;6174558;28;20014;-81
2022/11/09 06:44:42;;;;;;;58.43;33.60;;;;;;;;;;6171805;28;20019;-81
2022/11/09 06:47:42;;;;;;;62.33;34.83;;;;;;;;;;6172483;28;20316;-81
2022/11/09 06:50:42;;;;;;;58.38;33.35;;;;;;;;;;6175191;28;20329;-81
2022/11/09 06:53:42;;;;;;;56.50;33.08;;;;;;;;;;6173008;28;20101;-81
2022/11/09 06:56:43;;;;;;;55.60;33.93;;;;;;;;;;6173471;28;20393;-81
2022/11/09 06:59:43;;;;;;;54.88;33.25;;;;;;;;;;6173278;28;20265;-80
2022/11/09 07:02:43;;;;;;;60.78;34.92;;;;;;;;;;6170387;28;20029;-80
2022/11/09 07:05:43;;;;;;;55.65;33.83;;;;;;;;;;6172947;28;20066;-80
2022/11/09 07:08:44;;;;;;;62.53;35.95;;;;;;;;;;6173203;28;20844;-80
2022/11/09 07:11:44;;;;;;;68.10;37.50;;;;;;;;;;6171208;28;20037;-80
2022/11/09 07:14:44;;;;;;;75.93;40.67;;;;;;;;;;6172105;28;20485;-80
2022/11/09 07:17:44;;;;;;;73.10;41.70;;;;;;;;;;6171899;28;20054;-80
2022/11/09 07:20:44;;;;;;;76.50;41.27;;;;;;;;;;6173263;28;20022;-79
2022/11/09 07:23:46;;;;;;;67.90;38.43;;;;;;;;;;6176468;28;20277;-78
2022/11/09 07:26:47;;;;;;;62.90;36.00;;;;;;;;;;6168683;28;20285;-78
2022/11/09 07:29:47;;;;;;;62.27;35.20;;;;;;;;;;6176552;28;20379;-78
2022/11/09 07:32:47;;;;;;;52.97;31.77;;;;;;;;;;6168156;28;20034;-79
2022/11/09 07:35:47;;;;;;;66.90;35.80;;;;;;;;;;6167179;28;20294;-78
2022/11/09 07:38:47;;;;;;;60.63;35.70;;;;;;;;;;6173681;28;20023;-78
2022/11/09 07:41:48;;;;;;;65.00;35.07;;;;;;;;;;6169193;28;20105;-77
2022/11/09 07:44:48;;;;;;;64.77;35.53;;;;;;;;;;6185233;28;20030;-77
2022/11/09 07:47:48;;;;;;;58.03;34.53;;;;;;;;;;6169513;28;20026;-76
2022/11/09 07:50:48;;;;;;;58.15;33.88;;;;;;;;;;6172983;28;20082;-75
2022/11/09 07:53:48;;;;;;;57.05;33.40;;;;;;;;;;6172414;28;20266;-77
2022/11/09 07:56:49;;;;;;;54.40;34.77;;;;;;;;;;6168600;28;20105;-77
2022/11/09 07:59:50;;;;;;;53.70;33.67;;;;;;;;;;6169500;28;20058;-76
2022/11/09 08:02:50;;;;;;;60.80;34.10;;;;;;;;;;6170502;28;20069;-76
2022/11/09 08:05:51;;;;;;;63.40;33.97;;;;;;;;;;6168015;28;20192;-76
2022/11/09 08:08:52;;;;;;;62.27;33.40;;;;;;;;;;6171889;28;20027;-76
2022/11/09 08:11:52;;;;;;;61.80;33.15;;;;;;;;;;6170022;28;20439;-77
2022/11/09 08:14:52;;;;;;;60.58;34.17;;;;;;;;;;6171992;28;20026;-77
2022/11/09 08:17:53;;;;;;;54.60;34.97;;;;;;;;;;6172095;28;20077;-76
2022/11/09 08:20:53;;;;;;;46.43;31.97;;;;;;;;;;6171384;28;20066;-77
2022/11/09 08:23:53;;;;;;;59.60;37.17;;;;;;;;;;6171284;28;20022;-77
2022/11/09 08:26:54;;;;;;;59.27;36.67;;;;;;;;;;6171055;28;20018;-77
2022/11/09 08:29:54;;;;;;;55.45;35.05;;;;;;;;;;6172562;28;20538;-76
2022/11/09 08:32:55;;;;;;;45.30;29.60;;;;;;;;;;6176661;28;20035;-76
2022/11/09 08:35:55;;;;;;;50.17;30.20;;;;;;;;;;6169385;28;20023;-76
2022/11/09 08:38:58;;;;;;;48.63;30.97;;;;;;;;;;6173036;28;20366;-76
2022/11/09 08:41:58;;;;;;;39.40;26.35;;;;;;;;;;6164580;28;20402;-76
2022/11/09 08:44:58;;;;;;;46.27;28.53;;;;;;;;;;6175455;28;20054;-76
2022/11/09 08:47:59;;;;;;;43.03;27.27;;;;;;;;;;6176537;28;20022;-76
2022/11/09 08:50:59;;;;;;;45.87;28.93;;;;;;;;;;6174636;28;20031;-76
2022/11/09 08:53:59;;;;;;;49.03;28.87;;;;;;;;;;6174860;28;20077;-77
2022/11/09 08:56:59;;;;;;;47.65;29.15;;;;;;;;;;6173965;28;20011;-77
2022/11/09 09:00:00;;;;;;;47.87;29.30;;;;;;;;;;6186879;28;20400;-76
2022/11/09 09:03:04;;;;;;;46.23;28.40;;;;;;;;;;6172545;28;20506;-76
2022/11/09 09:06:05;;;;;;;47.97;26.90;;;;;;;;;;6196973;28;20096;-76
2022/11/09 09:09:05;;;;;;;45.03;30.27;;;;;;;;;;6197659;28;20019;-75
2022/11/09 09:12:06;;;;;;;48.70;30.50;;;;;;;;;;6197871;28;20336;-76
2022/11/09 09:15:07;;;;;;;47.13;29.48;;;;;;;;;;6199209;28;20469;-75
2022/11/09 09:18:07;;;;;;;49.70;29.57;;;;;;;;;;6181151;28;20015;-75
2022/11/09 09:21:08;;;;;;;47.20;26.80;;;;;;;;;;6179154;28;20382;-75
2022/11/09 09:24:08;;;;;;;51.30;30.37;;;;;;;;;;6180382;28;20026;-75
2022/11/09 09:27:08;;;;;;;50.27;27.57;;;;;;;;;;6197767;28;20517;-76
2022/11/09 09:30:09;;;;;;;47.30;28.57;;;;;;;;;;6197174;28;20029;-75
2022/11/09 09:33:09;;;;;;;51.87;30.90;;;;;;;;;;6199360;28;20035;-76
2022/11/09 09:36:15;;;;;;;44.37;26.67;;;;;;;;;;6198115;28;20030;-75
2022/11/09 09:39:15;;;;;;;81.22;39.03;;;;;;;;;;6198849;28;20521;-76
2022/11/09 09:42:21;;;;;;;96.30;42.75;;;;;;;;;;6179722;28;20050;-75
2022/11/09 09:45:24;;;;;;;42.47;27.80;;;;;;;;;;6179807;28;20101;-75
2022/11/09 09:48:36;;;;;;;40.85;23.52;;;;;;;;;;6196345;28;20029;-76
2022/11/09 09:51:44;;;;;;;50.33;29.73;;;;;;;;;;6195502;28;20015;-75
2022/11/09 09:55:04;;;;;;;37.45;23.77;;;;;;;;;;6195657;28;20082;-76
2022/11/09 09:58:17;;;;;;;47.35;26.77;;;;;;;;;;6194698;28;20049;-76
2022/11/09 10:01:19;;;;;;;40.03;25.95;;;;;;;;;;6198443;28;20046;-76
2022/11/09 10:04:23;;;;;;;41.58;24.15;;;;;;;;;;6197626;28;20569;-76
2022/11/09 10:07:29;;;;;;;41.05;25.70;;;;;;;;;;6181165;28;20018;-75
2022/11/09 10:10:32;;;;;;;38.47;23.67;;;;;;;;;;6196568;28;20058;-75
2022/11/09 10:13:44;;;;;;;37.75;23.25;;;;;;;;;;6197624;28;20092;-76
2022/11/09 10:16:57;;;;;;;37.60;21.10;;;;;;;;;;6196782;28;20027;-75
2022/11/09 10:19:57;;;;;;;30.88;20.17;;;;;;;;;;6178929;28;20093;-77
2022/11/09 10:23:13;;;;;;;35.87;20.37;;;;;;;;;;6196238;28;20034;-76
2022/11/09 10:26:16;;;;;;;36.60;21.60;;;;;;;;;;6197150;28;20034;-76
2022/11/09 10:29:23;;;;;;;38.53;20.23;;;;;;;;;;6193922;28;20026;-76
2022/11/09 10:32:23;;;;;;;33.60;20.30;;;;;;;;;;6187785;28;20030;-76
2022/11/09 10:35:28;;;;;;;41.03;22.40;;;;;;;;;;6195751;28;20477;-76
2022/11/09 10:38:36;;;;;;;33.22;20.10;;;;;;;;;;6177443;28;20463;-76
2022/11/09 10:41:41;;;;;;;37.50;20.55;;;;;;;;;;6196011;28;20080;-76
2022/11/09 10:44:41;;;;;;;37.28;20.98;;;;;;;;;;6177916;28;20072;-75
2022/11/09 10:47:49;;;;;;;36.40;20.70;;;;;;;;;;6177386;28;20368;-76
2022/11/09 10:50:53;;;;;;;31.70;19.50;;;;;;;;;;6196235;28;20034;-76
2022/11/09 10:54:13;;;;;;;31.73;19.95;;;;;;;;;;6195996;28;20026;-76
2022/11/09 10:57:16;;;;;;;27.65;16.92;;;;;;;;;;6175879;28;20022;-76
2022/11/09 11:00:18;;;;;;;28.77;17.67;;;;;;;;;;6195989;28;20026;-76
2022/11/09 11:03:18;;;;;;;26.20;17.13;;;;;;;;;;6195828;28;20026;-76
2022/11/09 11:06:21;;;;;;;29.50;17.33;;;;;;;;;;6192526;28;20068;-76
2022/11/09 11:09:22;;;;;;;28.75;18.23;;;;;;;;;;6195376;28;20487;-76
2022/11/09 11:12:22;;;;;;;26.60;16.47;;;;;;;;;;6196882;28;20045;-77
2022/11/09 11:15:25;;;;;;;21.80;14.57;;;;;;;;;;6196403;28;20006;-75
2022/11/09 11:18:26;;;;;;;23.05;13.15;;;;;;;;;;6196179;28;20022;-77
2022/11/09 11:21:27;;;;;;;23.37;12.43;;;;;;;;;;6197419;28;20021;-76
2022/11/09 11:24:39;;;;;;;25.17;14.65;;;;;;;;;;6178914;28;20018;-76
2022/11/09 11:27:39;;;;;;;;;;;;;;;;;;6196902;28;20018;-76
2022/11/09 11:30:39;;;;;;;22.75;13.27;;;;;;;;;;6194278;28;19910;-76
2022/11/09 11:33:39;;;;;;;16.87;8.83;;;;;;;;;;6195089;28;20014;-76
2022/11/09 11:36:48;;;;;;;17.97;9.97;;;;;;;;;;6190546;28;20019;-76
2022/11/09 11:40:02;;;;;;;16.63;10.43;;;;;;;;;;6195749;28;20382;-76
2022/11/09 11:43:03;;;;;;;22.00;11.40;;;;;;;;;;6195763;28;20471;-77
2022/11/09 11:46:30;;;;;;;16.60;9.55;;;;;;;;;;6193986;28;20038;-76
2022/11/09 11:49:49;;;;;;;16.23;10.35;;;;;;;;;;6195519;28;20019;-76
2022/11/09 11:53:08;;;;;;;18.27;9.88;;;;;;;;;;6178830;28;20101;-75
2022/11/09 11:56:17;;;;;;;14.90;10.00;;;;;;;;;;6196213;28;20026;-75
2022/11/09 11:59:23;;;;;;;17.95;10.05;;;;;;;;;;6196661;28;20022;-75
2022/11/09 12:02:30;;;;;;;15.68;8.85;;;;;;;;;;6177904;28;20422;-76
2022/11/09 12:05:33;;;;;;;16.08;9.32;;;;;;;;;;6196138;28;20038;-76
2022/11/09 12:09:06;;;;;;;14.95;8.70;;;;;;;;;;6178848;28;20041;-75
2022/11/09 12:12:06;;;;;;;16.63;9.68;;;;;;;;;;6152523;28;20041;-75
2022/11/09 12:15:09;;;;;;;19.03;9.20;;;;;;;;;;6196219;28;20433;-75
2022/11/09 12:18:15;;;;;;;21.58;11.10;;;;;;;;;;6179447;28;20037;-75
2022/11/09 12:21:16;;;;;;;16.80;9.88;;;;;;;;;;6200256;28;20029;-76
2022/11/09 12:24:17;;;;;;;;;;;;;;;;;;6182678;28;20478;-76
2022/11/09 12:27:34;;;;;;;15.40;9.75;;;;;;;;;;6200221;28;20408;-77
2022/11/09 12:30:53;;;;;;;17.55;10.52;;;;;;;;;;6180352;28;20085;-74
2022/11/09 12:33:59;;;;;;;20.00;10.52;;;;;;;;;;6198055;28;20026;-74
2022/11/09 12:37:06;;;;;;;16.77;10.02;;;;;;;;;;6181137;28;20022;-75
2022/11/09 12:40:19;;;;;;;23.40;10.85;;;;;;;;;;6180319;28;20122;-74
2022/11/09 12:43:31;;;;;;;20.67;11.52;;;;;;;;;;6196073;28;20022;-74
2022/11/09 12:46:34;;;;;;;19.73;11.57;;;;;;;;;;6196662;28;20486;-75
2022/11/09 12:49:34;;;;;;;18.42;10.02;;;;;;;;;;6196869;28;20022;-74
2022/11/09 12:52:36;;;;;;;20.00;9.63;;;;;;;;;;6199536;28;20505;-74
2022/11/09 12:55:39;;;;;;;16.90;10.80;;;;;;;;;;6195210;28;20474;-75
2022/11/09 12:58:40;;;;;;;21.60;11.15;;;;;;;;;;6195569;28;20030;-74
2022/11/09 13:01:45;;;;;;;23.83;13.10;;;;;;;;;;6198245;28;20039;-75
2022/11/09 13:04:53;;;;;;;24.40;13.73;;;;;;;;;;6177270;28;20112;-76
2022/11/09 13:07:53;;;;;;;19.58;11.85;;;;;;;;;;6178891;28;20065;-76
2022/11/09 13:11:07;;;;;;;20.67;12.73;;;;;;;;;;6198519;28;20030;-75
2022/11/09 13:14:29;;;;;;;24.42;12.73;;;;;;;;;;6179434;28;20037;-75
2022/11/09 13:17:29;;;;;;;18.90;10.27;;;;;;;;;;6178508;28;20564;-75
2022/11/09 13:20:36;;;;;;;19.10;12.60;;;;;;;;;;6198115;28;20026;-75
2022/11/09 13:23:37;;;;;;;15.85;10.00;;;;;;;;;;6195006;28;20042;-75
2022/11/09 13:26:37;;;;;;;18.35;10.15;;;;;;;;;;6197944;28;20026;-75
2022/11/09 13:29:37;;;;;;;19.63;12.43;;;;;;;;;;6195491;28;20025;-76
2022/11/09 13:32:37;;;;;;;18.55;10.35;;;;;;;;;;6195968;28;20101;-76
2022/11/09 13:35:41;;;;;;;23.10;11.20;;;;;;;;;;6178261;28;20014;-74
2022/11/09 13:38:41;;;;;;;23.27;11.85;;;;;;;;;;6195636;28;20037;-75
2022/11/09 13:41:42;;;;;;;20.00;10.43;;;;;;;;;;6179511;28;20022;-75
2022/11/09 13:44:42;;;;;;;20.20;10.03;;;;;;;;;;6178982;28;20413;-75
2022/11/09 13:47:49;;;;;;;21.17;10.47;;;;;;;;;;6196248;28;20076;-75
2022/11/09 13:50:53;;;;;;;21.92;12.32;;;;;;;;;;6198017;28;20109;-76
2022/11/09 13:53:55;;;;;;;22.85;12.38;;;;;;;;;;6181353;28;20076;-76
2022/11/09 13:56:56;;;;;;;25.42;12.88;;;;;;;;;;6180587;28;20271;-76
2022/11/09 13:59:57;;;;;;;20.40;11.60;;;;;;;;;;6180818;28;20011;-76
2022/11/09 14:02:58;;;;;;;20.43;11.33;;;;;;;;;;6197565;28;20011;-75
2022/11/09 14:05:58;;;;;;;;;;;;;;;;;;6200361;28;20441;-76
2022/11/09 14:09:00;;;;;;;20.17;12.07;;;;;;;;;;6197866;28;20270;-75
2022/11/09 14:12:19;;;;;;;20.88;11.43;;;;;;;;;;6181213;28;20387;-76
2022/11/09 14:15:39;;;;;;;21.35;13.18;;;;;;;;;;6193355;28;20026;-76
2022/11/09 14:18:44;;;;;;;23.85;13.20;;;;;;;;;;6191473;28;20037;-75
2022/11/09 14:21:46;;;;;;;25.15;13.55;;;;;;;;;;6195967;28;20049;-76
2022/11/09 14:24:46;;;;;;;26.38;14.52;;;;;;;;;;6180822;28;20025;-75
2022/11/09 14:27:49;;;;;;;26.97;14.67;;;;;;;;;;6195120;28;20026;-75
2022/11/09 14:30:49;;;;;;;27.70;15.65;;;;;;;;;;6195035;28;20018;-75
2022/11/09 14:34:03;;;;;;;29.20;16.77;;;;;;;;;;6195919;28;20022;-76
2022/11/09 14:37:04;;;;;;;32.25;18.23;;;;;;;;;;6193765;28;20054;-75
2022/11/09 14:40:05;;;;;;;29.80;17.57;;;;;;;;;;6196435;28;20025;-75
2022/11/09 14:43:24;;;;;;;30.70;16.60;;;;;;;;;;6200447;28;20040;-76
2022/11/09 14:46:26;;;;;;;34.08;18.15;;;;;;;;;;6195798;28;20398;-76
2022/11/09 14:49:26;;;;;;;34.42;18.70;;;;;;;;;;6195986;28;20038;-76
2022/11/09 14:52:28;;;;;;;33.97;20.33;;;;;;;;;;6197424;28;20447;-76
2022/11/09 14:55:29;;;;;;;31.83;18.42;;;;;;;;;;6201991;28;20021;-76
2022/11/09 14:58:30;;;;;;;28.60;17.23;;;;;;;;;;6197100;28;20421;-75
2022/11/09 15:01:31;;;;;;;37.97;19.65;;;;;;;;;;6194988;28;20356;-75
2022/11/09 15:04:49;;;;;;;37.50;18.67;;;;;;;;;;6178370;28;20042;-76
2022/11/09 15:07:50;;;;;;;34.03;19.77;;;;;;;;;;6179523;28;20022;-76
2022/11/09 15:10:51;;;;;;;38.87;21.33;;;;;;;;;;6196847;28;20061;-75
2022/11/09 15:13:52;;;;;;;50.10;27.85;;;;;;;;;;6179449;28;20121;-75
2022/11/09 15:17:11;;;;;;;44.57;26.70;;;;;;;;;;6195864;28;20025;-77
2022/11/09 15:20:11;;;;;;;56.65;28.80;;;;;;;;;;6169381;28;20022;-76
2022/11/09 15:23:22;;;;;;;47.65;26.08;;;;;;;;;;6200189;28;20375;-76
2022/11/09 15:26:43;;;;;;;53.75;31.73;;;;;;;;;;6186421;28;20041;-76
2022/11/09 15:29:43;;;;;;;62.35;31.67;;;;;;;;;;6198968;28;20030;-76
2022/11/09 15:32:43;;;;;;;43.93;28.70;;;;;;;;;;6183287;28;20103;-77
2022/11/09 15:36:07;;;;;;;51.90;29.80;;;;;;;;;;6202982;28;20501;-76
2022/11/09 15:39:20;;;;;;;42.88;23.85;;;;;;;;;;6182742;28;20080;-77
2022/11/09 15:42:21;;;;;;;49.97;28.70;;;;;;;;;;6193765;28;20026;-76
2022/11/09 15:45:21;;;;;;;47.63;30.93;;;;;;;;;;6187920;28;20033;-76
2022/11/09 15:48:21;;;;;;;42.63;25.43;;;;;;;;;;6189963;28;20510;-76
2022/11/09 15:51:22;;;;;;;50.33;30.27;;;;;;;;;;6195232;28;20089;-76
2022/11/09 15:54:22;;;;;;;70.40;41.17;;;;;;;;;;6178148;28;20041;-77
2022/11/09 15:57:23;;;;;;;160.87;97.63;;;;;;;;;;6199384;28;20019;-76
2022/11/09 16:00:23;;;;;;;131.03;80.73;;;;;;;;;;6198693;28;20007;-76
2022/11/09 16:03:23;;;;;;;116.23;73.20;;;;;;;;;;6200174;28;20014;-76
2022/11/09 16:06:23;;;;;;;86.65;49.25;;;;;;;;;;6199924;28;20502;-77
2022/11/09 16:09:23;;;;;;;70.95;41.58;;;;;;;;;;6200511;28;20069;-77
2022/11/09 16:12:24;;;;;;;69.60;38.75;;;;;;;;;;6179740;28;20041;-77
2022/11/09 16:15:24;;;;;;;86.75;47.10;;;;;;;;;;6199624;28;20021;-77
2022/11/09 16:18:25;;;;;;;86.17;45.43;;;;;;;;;;6181383;28;20030;-77
2022/11/09 16:21:25;;;;;;;88.85;51.33;;;;;;;;;;6181922;28;20015;-77
2022/11/09 16:24:25;;;;;;;119.30;72.73;;;;;;;;;;6181162;28;20352;-76
2022/11/09 16:27:26;;;;;;;97.20;56.42;;;;;;;;;;6180636;28;20435;-77
2022/11/09 16:30:26;;;;;;;87.20;50.83;;;;;;;;;;6200340;28;20020;-77
2022/11/09 16:33:26;;;;;;;131.90;75.27;;;;;;;;;;6200542;28;20034;-77
2022/11/09 16:36:27;;;;;;;105.33;61.27;;;;;;;;;;6197773;28;20026;-77
2022/11/09 16:39:27;;;;;;;115.55;66.22;;;;;;;;;;6200411;28;20053;-77
2022/11/09 16:42:27;;;;;;;145.47;94.37;;;;;;;;;;6182341;28;20029;-77
2022/11/09 16:45:27;;;;;;;155.24;92.12;;;;;;;;;;6200298;28;20026;-76
2022/11/09 16:48:30;;;;;;;129.40;75.23;;;;;;;;;;6197116;28;20041;-76
2022/11/09 16:51:31;;;;;;;115.43;67.50;;;;;;;;;;6181949;28;20328;-76
2022/11/09 16:54:31;;;;;;;105.82;61.42;;;;;;;;;;6198971;28;20467;-77
2022/11/09 16:57:31;;;;;;;87.80;53.90;;;;;;;;;;6198536;28;20277;-76
2022/11/09 17:00:31;;;;;;;80.03;44.75;;;;;;;;;;6192441;28;20301;-77
2022/11/09 17:03:31;;;;;;;80.63;46.97;;;;;;;;;;6199629;28;21173;-76
2022/11/09 17:06:32;;;;;;;77.63;44.85;;;;;;;;;;6197725;28;20034;-76
2022/11/09 17:09:33;;;;;;;89.17;47.17;;;;;;;;;;6199205;28;20410;-77
2022/11/09 17:12:33;;;;;;;88.67;50.57;;;;;;;;;;6192980;28;20026;-77
2022/11/09 17:15:33;;;;;;;92.93;52.70;;;;;;;;;;6194851;28;20026;-77
2022/11/09 17:18:33;;;;;;;82.33;49.67;;;;;;;;;;6195341;28;20034;-77
2022/11/09 17:21:33;;;;;;;114.32;69.15;;;;;;;;;;6198241;28;20443;-77
2022/11/09 17:24:33;;;;;;;150.48;84.82;;;;;;;;;;6179876;28;20130;-77
2022/11/09 17:27:36;;;;;;;130.90;79.80;;;;;;;;;;6198318;28;20022;-76
2022/11/09 17:30:39;;;;;;;122.38;77.10;;;;;;;;;;6180157;28;20493;-76
2022/11/09 17:33:39;;;;;;;104.78;63.55;;;;;;;;;;6179302;28;20022;-77
2022/11/09 17:36:39;;;;;;;117.35;66.70;;;;;;;;;;6196884;28;20072;-76
2022/11/09 17:39:39;;;;;;;115.47;64.95;;;;;;;;;;6179129;28;20273;-77